Accueil
METAR-TAF:

METAR-TAF

Aéroports :

Aéroport de Lannion-Côte de Granit

Lannion, France

latitude: 48-45N, longitude: 003-28W, altitude: 89 m

Observation

Le bulletin a été fait il y a 40 minutes, à 12:30 UTC
Vent 6 kt de nord/nord-est, variant entre nord/nord-ouest et est
Température 20°C
Humidité 68%
Pression 1026 hPa
Visibilité 10 km ou plus
pas de nuages en-dessous de 1500 mètres et pas de cumulonimbus.

METAR: LFRO 221230Z AUTO 03006KT 340V080 CAVOK 20/14 Q1026

Heure: 15:10 (13:10 UTC)


TAF: absent

Observations et prévisions météorologiques de plus de 4000 aéroports (messages METAR et TAF).

Les stations disponibles sont représentées par des disques jaunes et rouges sur la carte.

Passer la souris dessus pour voir le nom de la station.

Cliquer dessus pour voir les observations et prévisions météorologiques.

Pour changer de carte: cliquez sur les boutons verts avec une croix noire pour zoomer, sur le bouton vert avec un tiret pour effectuer un zoom arrière, ou sur les flèches vertes pour les cartes adjacentes.


METAR-TAF: